Cape Dorset Airport
CYTE : now visible

Airfield :











YOU CAN JOIN US ON...

 
LOGIN :

Register | Disclaimer

   EN    FR    IT 

 









Legend :    VFR   Marginal VFR   IFR   Intensive IFR   Very Intensive IFR
Visi :
Ceiling :
>= 8 km
>= 3000ft
5 to 8 km
1000 to 3000 ft
1500m to 5 km
500 to 1000 ft
800 to 1500m
200 to 500 ft
< 800m
< 200 ft
Symbols :   Thunderstorms  Fog  Heavy snow  Heavy precipitations  Wind > 20 kt







- Airport Elevation : 164 ft
- IATA code : YTE


CYTE - Cape Dorset

CURRENT METAR :
  • 170838Z AUTO 18013G18KT 9SM -RA SCT047 OVC055 07/03 A3003 RMK SLP173

EXPIRED METARs :
  • 170802Z AUTO 19011G18KT 9SM -RA BKN065 07/03 A3003 RMK SLP174
  • 170700Z AUTO 16014G20KT 9SM OVC110 08/03 A3003 RMK SLP174
  • 170600Z AUTO 18009G17KT 9SM SCT045 BKN055 OVC067 07/03 A3005 RMK SLP179

TAF TAF CYTE
Valid from the 17 at 07:00 until the 17 at 19:00 UTC


170638Z 1707/1719 18012KT P6SM BKN050
FM170900 20015KT P6SM -RA SCT010 OVC050
TEMPO 1709/1711 5SM -RA BR OVC010
FM171100 22015KT 5SM -RA BR OVC010
TEMPO 1711/1715 1SM -RA BR OVC005
FM171500 25012KT P6SM OVC010
TEMPO 1715/1719 2SM -DZ BR OVC005 RMK FCST BASED ON AUTO OBS. NXT FCST BY 171300Z
No reported NOTAMs for that airfield.



MET'MAP, your aeronautical weather chart ! - Copyright ORBIFLY December 2007 - Disclaimer

ORBIFLY MET'MAP TEAM :

Programming & Development : Alexandra Zaïnal
Concept & Development : Baudouin d'Aumeries
Co-Development & Prog : Marc-Olivier Méhu
Technical & hardware support : Manuel Goepfert

Contact : metmap@orbifly.com




SOURCES & CREDITS :

   NOAA       Earth
Advisory